Time;durP1;ratioP1;P1;durP2;ratioP2;P2;SDS_P1;SDS_P2;PMS_P1;PMS_P2;Temp;Humidity;BMP_temperature;BMP_pressure;BME280_temperature;BME280_humidity;BME280_pressure;Samples;Min_cycle;Max_cycle;Signal;HPM_P1;HPM_P2
2021/06/30 00:00:58;;;;;;;6.87;6.10;;;;;;;22.26;47.38;99417.23;126814;1090;103503;-80
2021/06/30 00:03:50;;;;;;;8.13;6.23;;;;;;;22.25;47.18;99426.19;126633;1090;113993;-83
2021/06/30 00:06:39;;;;;;;7.37;6.67;;;;;;;22.24;47.28;99425.34;126740;1089;102850;-82
2021/06/30 00:09:32;;;;;;;7.53;6.37;;;;;;;22.22;47.60;99429.13;126823;1089;114176;-82
2021/06/30 00:12:25;;;;;;;7.33;6.60;;;;;;;22.21;47.32;99424.80;126686;1089;103023;-82
2021/06/30 00:15:21;;;;;;;6.90;5.97;;;;;;;22.18;47.37;99420.63;126634;1090;114072;-81
2021/06/30 00:18:13;;;;;;;11.07;6.27;;;;;;;22.16;47.80;99411.97;126721;1088;102859;-81
2021/06/30 00:21:06;;;;;;;7.37;6.57;;;;;;;22.14;47.67;99416.58;126680;1088;115397;-80
2021/06/30 00:23:59;;;;;;;7.20;6.43;;;;;;;22.12;47.90;99431.83;126783;1089;102891;-81
2021/06/30 00:26:52;;;;;;;7.33;6.13;;;;;;;22.10;47.65;99435.61;126672;1089;114252;-81
2021/06/30 00:29:39;;;;;;;7.10;6.40;;;;;;;22.06;48.12;99437.69;126686;1090;103032;-79
2021/06/30 00:32:27;;;;;;;11.03;6.57;;;;;;;22.03;47.56;99429.98;126636;1090;114297;-79
2021/06/30 00:35:16;;;;;;;6.93;6.33;;;;;;;22.00;47.75;99424.95;126847;1089;101858;-80
2021/06/30 00:38:09;;;;;;;7.33;6.40;;;;;;;21.97;48.19;99418.12;126648;1089;114295;-81
2021/06/30 00:41:01;;;;;;;7.20;6.30;;;;;;;21.95;47.90;99420.08;126821;1090;102927;-83
2021/06/30 00:43:49;;;;;;;9.03;6.70;;;;;;;21.94;48.36;99421.06;126625;1089;114296;-80
2021/06/30 00:46:42;;;;;;;7.53;6.40;;;;;;;21.93;48.10;99421.20;126741;1089;102935;-81
2021/06/30 00:49:29;;;;;;;7.23;6.53;;;;;;;21.90;48.90;99411.71;126682;1090;103447;-82
2021/06/30 00:52:22;;;;;;;7.20;5.97;;;;;;;21.87;48.58;99397.86;126777;1090;113955;-81
2021/06/30 00:55:16;;;;;;;8.00;6.63;;;;;;;21.85;48.61;99389.20;126802;1088;102901;-81
2021/06/30 00:58:08;;;;;;;7.17;6.47;;;;;;;21.82;48.64;99386.84;126631;1090;114302;-80
2021/06/30 01:01:00;;;;;;;8.83;6.60;;;;;;;21.81;48.92;99382.50;126885;1090;103001;-80
2021/06/30 01:03:49;;;;;;;7.27;6.50;;;;;;;21.79;49.26;99389.78;126625;1089;114207;-80
2021/06/30 01:06:42;;;;;;;7.37;6.67;;;;;;;21.76;49.46;99374.14;126796;1088;102852;-81
2021/06/30 01:09:34;;;;;;;8.10;6.63;;;;;;;21.74;49.58;99376.94;126665;1090;114343;-80
2021/06/30 01:12:27;;;;;;;7.70;6.93;;;;;;;21.71;49.81;99378.03;126755;1090;103082;-80
2021/06/30 01:15:16;;;;;;;7.17;6.47;;;;;;;21.69;49.79;99374.69;126679;1088;114439;-79
2021/06/30 01:18:08;;;;;;;9.30;7.50;;;;;;;21.65;50.23;99367.99;126749;1088;102998;-79
2021/06/30 01:21:03;;;;;;;8.17;6.97;;;;;;;21.61;50.43;99371.91;126705;1088;114317;-80
2021/06/30 01:23:55;;;;;;;8.10;7.30;;;;;;;21.57;50.17;99370.52;126782;1090;101394;-79
2021/06/30 01:26:50;;;;;;;7.87;6.47;;;;;;;21.54;50.75;99360.16;126742;1089;114543;-79
2021/06/30 01:29:43;;;;;;;8.13;6.93;;;;;;;21.51;50.60;99356.96;126842;1089;102874;-79
2021/06/30 01:32:36;;;;;;;8.17;7.33;;;;;;;21.49;50.56;99362.41;126750;1090;114644;-80
2021/06/30 01:35:24;;;;;;;7.38;6.68;;;;;;;21.45;50.66;99366.33;126944;1090;100602;-80
2021/06/30 01:38:13;;;;;;;11.37;7.73;;;;;;;21.41;51.19;99368.42;126723;1090;114629;-79
2021/06/30 01:41:05;;;;;;;9.73;7.13;;;;;;;21.38;51.12;99370.53;126707;1090;103007;-80
2021/06/30 01:43:58;;;;;;;8.55;7.65;;;;;;;21.35;51.13;99370.78;126669;1090;114290;-80
2021/06/30 01:46:47;;;;;;;7.77;6.97;;;;;;;21.31;51.09;99358.78;126736;1088;102849;-79
2021/06/30 01:49:37;;;;;;;8.93;7.40;;;;;;;21.29;51.20;99355.44;126831;1089;102910;-80
2021/06/30 01:52:29;;;;;;;9.33;7.43;;;;;;;21.26;51.39;99350.41;126852;1089;114107;-80
2021/06/30 01:55:22;;;;;;;8.10;7.30;;;;;;;21.23;51.89;99350.66;126797;1090;102954;-79
2021/06/30 01:58:22;;;;;;;8.97;7.10;;;;;;;21.20;51.83;99358.90;126704;1088;114397;-79
2021/06/30 02:01:15;;;;;;;10.70;7.93;;;;;;;21.16;51.79;99352.17;126717;1090;102916;-80
2021/06/30 02:04:03;;;;;;;7.67;6.87;;;;;;;21.10;51.57;99345.62;126598;1088;114328;-80
2021/06/30 02:06:56;;;;;;;8.30;7.37;;;;;;;21.06;52.28;99339.76;126840;1088;103029;-80
2021/06/30 02:09:44;;;;;;;7.90;7.10;;;;;;;21.03;52.08;99334.73;126705;1089;114479;-80
2021/06/30 02:12:37;;;;;;;8.37;7.00;;;;;;;21.01;51.79;99336.70;126781;1090;102881;-80
2021/06/30 02:15:33;;;;;;;7.63;6.80;;;;;;;21.01;51.59;99338.51;126670;1089;114298;-80
2021/06/30 02:18:25;;;;;;;7.83;6.70;;;;;;;21.00;52.27;99323.55;126800;1090;102978;-80
2021/06/30 02:21:14;;;;;;;10.00;6.90;;;;;;;20.98;52.15;99331.64;126669;1089;114568;-79
2021/06/30 02:24:07;;;;;;;8.00;7.20;;;;;;;21.00;52.18;99334.15;126798;1090;103009;-79
2021/06/30 02:27:01;;;;;;;7.93;6.90;;;;;;;20.99;52.02;99322.70;126709;1089;113160;-80
2021/06/30 02:29:48;;;;;;;7.87;7.03;;;;;;;21.00;52.38;99329.69;126831;1088;102650;-80
2021/06/30 02:32:36;;;;;;;;;;;;;;;21.01;52.06;99336.70;126776;1089;115123;-80
2021/06/30 02:35:30;;;;;;;8.33;6.60;;;;;;;21.01;52.27;99335.86;126938;1089;102858;-80
2021/06/30 02:38:23;;;;;;;8.13;7.17;;;;;;;21.02;52.25;99334.88;126751;1089;114439;-80
2021/06/30 02:41:16;;;;;;;9.80;7.80;;;;;;;21.02;52.34;99341.02;126829;1090;102855;-80
2021/06/30 02:44:08;;;;;;;8.03;7.23;;;;;;;21.05;52.11;99347.85;126792;1089;104884;-79
2021/06/30 02:46:57;;;;;;;9.30;7.97;;;;;;;21.06;52.24;99350.36;126941;1088;102938;-81
2021/06/30 02:49:49;;;;;;;8.40;7.60;;;;;;;21.07;52.59;99346.73;126819;1090;102750;-80
2021/06/30 02:52:43;;;;;;;8.23;7.30;;;;;;;21.09;52.16;99339.48;126820;1089;114103;-80
2021/06/30 02:55:35;;;;;;;8.67;7.13;;;;;;;21.15;52.59;99347.84;126757;1089;102884;-80
2021/06/30 02:58:29;;;;;;;8.53;7.33;;;;;;;21.21;52.19;99344.66;126674;1090;114103;-79
2021/06/30 03:01:22;;;;;;;8.90;7.60;;;;;;;21.27;51.93;99346.78;126957;1088;102997;-79
2021/06/30 03:04:15;;;;;;;7.93;6.83;;;;;;;21.32;51.75;99352.50;126773;1090;114100;-80
2021/06/30 03:07:07;;;;;;;9.07;7.00;;;;;;;21.37;52.02;99347.64;126609;1088;103887;-79
2021/06/30 03:10:00;;;;;;;8.00;7.20;;;;;;;21.43;51.81;99341.76;126601;1090;113270;-79
2021/06/30 03:12:53;;;;;;;9.13;7.80;;;;;;;21.48;51.57;99344.81;126838;1089;102854;-80
2021/06/30 03:15:47;;;;;;;8.23;7.00;;;;;;;21.51;51.53;99346.35;126778;1090;114348;-80
2021/06/30 03:18:41;;;;;;;7.65;6.80;;;;;;;21.57;51.73;99354.60;126891;1090;102907;-80
2021/06/30 03:21:34;;;;;;;8.80;7.43;;;;;;;21.65;51.52;99361.84;126679;1089;114130;-80
2021/06/30 03:24:27;;;;;;;7.73;6.63;;;;;;;21.69;51.33;99373.84;126931;1088;103821;-80
2021/06/30 03:27:14;;;;;;;7.90;7.10;;;;;;;21.70;51.28;99370.21;126818;1090;114288;-80
2021/06/30 03:30:04;;;;;;;9.07;7.07;;;;;;;21.68;51.70;99383.63;126949;1089;100832;-80
2021/06/30 03:33:02;;;;;;;8.10;7.10;;;;;;;21.67;51.62;99387.26;126718;1090;114422;-80
2021/06/30 03:35:54;;;;;;;7.83;7.03;;;;;;;21.65;51.56;99406.95;126727;1089;102909;-80
2021/06/30 03:38:42;;;;;;;7.23;6.53;;;;;;;21.61;51.69;99435.59;126635;1088;114347;-80
2021/06/30 03:41:30;;;;;;;7.97;6.73;;;;;;;21.52;52.91;99449.68;126772;1090;102672;-81
2021/06/30 03:44:23;;;;;;;9.37;6.97;;;;;;;21.35;52.26;99424.66;126812;1089;102963;-80
2021/06/30 03:47:16;;;;;;;9.20;7.60;;;;;;;21.28;52.32;99422.71;126753;1090;114150;-80
2021/06/30 03:50:10;;;;;;;7.27;6.60;;;;;;;21.12;53.21;99441.77;126941;1089;103013;-80
2021/06/30 03:53:03;;;;;;;12.37;7.70;;;;;;;21.03;53.56;99443.44;126727;1090;114481;-81
2021/06/30 03:55:55;;;;;;;7.75;6.95;;;;;;;20.96;53.29;99434.33;126788;1090;102933;-81
2021/06/30 03:58:43;;;;;;;10.70;7.57;;;;;;;20.96;53.57;99438.78;126733;1090;114555;-81
2021/06/30 04:01:35;;;;;;;12.47;8.57;;;;;;;20.92;54.44;99438.23;126854;1090;103065;-81
2021/06/30 04:04:30;;;;;;;11.97;8.63;;;;;;;20.87;54.26;99439.61;126746;1090;114404;-81
2021/06/30 04:07:18;;;;;;;10.20;7.53;;;;;;;20.84;54.86;99437.23;126965;1088;102919;-80
2021/06/30 04:10:07;;;;;;;12.37;8.20;;;;;;;20.81;54.51;99430.36;126727;1090;114521;-80
2021/06/30 04:12:54;;;;;;;10.20;7.97;;;;;;;20.79;55.86;99440.27;126797;1089;103000;-80
2021/06/30 04:15:46;;;;;;;14.23;8.33;;;;;;;20.75;55.27;99436.21;126658;1088;113321;-80
2021/06/30 04:18:39;;;;;;;13.33;8.70;;;;;;;20.74;55.82;99439.83;126936;1090;102860;-80
2021/06/30 04:21:32;;;;;;;10.47;8.60;;;;;;;20.73;56.71;99439.00;126817;1090;114528;-80
2021/06/30 04:24:20;;;;;;;9.13;8.00;;;;;;;20.76;56.60;99427.28;126771;1090;103300;-80
2021/06/30 04:27:13;;;;;;;11.13;8.10;;;;;;;20.76;57.06;99437.88;126762;1089;114469;-80
2021/06/30 04:30:08;;;;;;;14.63;8.13;;;;;;;20.77;57.44;99423.66;126921;1089;104059;-80
2021/06/30 04:33:00;;;;;;;10.65;8.15;;;;;;;20.76;57.08;99427.28;126723;1089;115106;-80
2021/06/30 04:35:53;;;;;;;13.10;8.63;;;;;;;20.73;57.29;99419.61;126804;1088;103102;-80
2021/06/30 04:38:40;;;;;;;;;;;;;;;20.69;57.51;99416.39;126824;1089;100498;-81
2021/06/30 04:41:33;;;;;;;13.43;7.83;;;;;;;20.68;57.63;99405.93;126867;1089;104105;-81
2021/06/30 04:44:21;;;;;;;12.10;8.50;;;;;;;20.69;57.82;99397.84;126798;1089;102871;-80
2021/06/30 04:47:13;;;;;;;11.33;8.10;;;;;;;20.73;57.98;99395.76;126707;1089;114630;-81
2021/06/30 04:50:01;;;;;;;11.77;8.43;;;;;;;20.76;58.43;99391.02;126884;1090;102968;-80
2021/06/30 04:52:49;;;;;;;14.07;8.37;;;;;;;20.82;58.04;99392.28;126724;1089;114412;-80
2021/06/30 04:55:42;;;;;;;13.07;8.37;;;;;;;20.86;58.37;99398.18;126921;1088;102983;-80
2021/06/30 04:58:35;;;;;;;14.17;8.80;;;;;;;20.88;58.74;99385.63;126839;1089;114251;-80
2021/06/30 05:01:27;;;;;;;9.67;8.23;;;;;;;20.89;58.80;99379.34;126858;1090;102994;-81
2021/06/30 05:04:16;;;;;;;10.50;8.47;;;;;;;20.90;58.54;99378.38;126854;1090;114070;-81
2021/06/30 05:07:09;;;;;;;14.20;8.40;;;;;;;20.91;58.66;99369.45;126839;1090;102846;-81
2021/06/30 05:10:03;;;;;;;14.27;8.97;;;;;;;20.93;58.54;99352.43;126703;1089;114263;-80
2021/06/30 05:12:56;;;;;;;8.47;7.47;;;;;;;21.00;59.00;99344.75;126761;1089;102860;-81
2021/06/30 05:15:48;;;;;;;18.97;8.60;;;;;;;21.05;58.85;99332.78;126694;1088;114202;-80
2021/06/30 05:18:36;;;;;;;26.93;9.90;;;;;;;21.12;58.93;99333.89;126800;1090;102668;-80
2021/06/30 05:21:29;;;;;;;29.60;9.20;;;;;;;21.21;58.92;99337.55;126729;1090;114840;-80
2021/06/30 05:24:23;;;;;;;21.90;9.20;;;;;;;21.28;59.08;99327.23;126988;1088;100590;-80
2021/06/30 05:27:15;;;;;;;18.00;8.70;;;;;;;21.34;58.80;99308.94;126692;1090;114794;-80
2021/06/30 05:30:05;;;;;;;12.27;7.57;;;;;;;21.39;58.94;99297.93;126756;1090;102663;-81
2021/06/30 05:32:58;;;;;;;11.03;7.30;;;;;;;21.45;58.26;99284.09;126831;1089;102866;-81
2021/06/30 05:35:48;;;;;;;11.05;7.20;;;;;;;21.53;58.65;99268.28;126702;1090;112969;-81
2021/06/30 05:38:42;;;;;;;11.30;7.00;;;;;;;21.61;57.93;99263.12;126855;1090;102868;-80
2021/06/30 05:41:30;;;;;;;12.30;7.10;;;;;;;21.70;58.16;99259.59;126752;1088;114358;-80
2021/06/30 05:44:17;;;;;;;;;;;;;;;21.78;57.64;99244.78;126956;1089;103031;-80
2021/06/30 05:47:05;;;;;;;10.57;6.90;;;;;;;21.86;57.36;99236.91;126848;1089;102952;-81
2021/06/30 05:49:52;;;;;;;10.03;6.80;;;;;;;21.96;57.18;99232.41;126739;1090;102856;-81
2021/06/30 05:52:41;;;;;;;8.57;6.50;;;;;;;22.05;56.60;99231.55;126689;1089;114337;-81
2021/06/30 05:55:35;;;;;;;10.57;6.67;;;;;;;22.15;56.52;99231.52;126955;1089;102852;-80
2021/06/30 05:58:28;;;;;;;8.90;6.17;;;;;;;22.25;56.35;99227.81;126638;1090;114528;-81
2021/06/30 06:01:16;;;;;;;13.30;7.37;;;;;;;22.37;56.23;99223.14;126804;1090;102876;-80
2021/06/30 06:04:03;;;;;;;;;;;;;;;22.48;56.52;99217.63;126719;1089;114627;-81
2021/06/30 06:06:50;;;;;;;8.80;7.60;;;;;;;22.57;56.12;99227.34;126732;1089;100470;-81
2021/06/30 06:09:43;;;;;;;8.47;7.10;;;;;;;22.62;55.36;99229.54;126738;1089;114375;-81
2021/06/30 06:12:32;;;;;;;11.60;7.53;;;;;;;22.65;55.43;99233.74;126916;1089;102986;-81
2021/06/30 06:15:19;;;;;;;9.87;6.87;;;;;;;22.58;55.31;99229.02;126847;1090;102868;-81
2021/06/30 06:18:12;;;;;;;13.37;6.97;;;;;;;22.51;55.32;99216.48;126717;1090;102879;-81
2021/06/30 06:21:00;;;;;;;12.43;7.77;;;;;;;22.39;55.07;99215.85;126818;1090;103477;-79
2021/06/30 06:23:52;;;;;;;11.37;7.40;;;;;;;22.31;56.00;99210.47;126733;1090;114387;-79
2021/06/30 06:26:47;;;;;;;10.73;7.57;;;;;;;22.23;56.29;99203.22;126804;1089;103885;-80
2021/06/30 06:29:40;;;;;;;10.63;8.07;;;;;;;22.19;56.97;99206.33;126594;1090;113446;-80
2021/06/30 06:32:33;;;;;;;13.33;8.17;;;;;;;22.12;57.60;99210.58;126682;1090;102933;-80
2021/06/30 06:35:25;;;;;;;12.60;8.80;;;;;;;22.05;57.39;99214.78;126659;1090;113674;-80
2021/06/30 06:38:19;;;;;;;11.20;8.93;;;;;;;21.99;57.91;99221.50;126811;1090;101348;-80
2021/06/30 06:41:07;;;;;;;12.60;8.10;;;;;;;21.96;58.44;99227.11;126668;1088;113174;-79
2021/06/30 06:43:55;;;;;;;12.87;8.33;;;;;;;21.97;58.27;99223.47;126828;1089;102918;-79
2021/06/30 06:46:47;;;;;;;14.47;9.00;;;;;;;22.02;58.81;99214.07;126615;1090;114619;-79
2021/06/30 06:49:35;;;;;;;11.37;8.97;;;;;;;22.09;58.78;99217.02;126775;1089;102945;-80
2021/06/30 06:52:23;;;;;;;15.73;8.63;;;;;;;22.19;58.71;99209.83;126622;1090;113503;-80
2021/06/30 06:55:15;;;;;;;11.90;8.47;;;;;;;22.34;58.97;99204.02;126673;1088;103257;-80
2021/06/30 06:58:08;;;;;;;12.37;8.90;;;;;;;22.50;58.96;99205.02;126606;1088;113778;-80
2021/06/30 07:01:01;;;;;;;11.73;8.73;;;;;;;22.68;58.66;99209.52;126792;1090;102857;-80
2021/06/30 07:03:54;;;;;;;13.20;8.97;;;;;;;22.84;58.44;99215.86;126636;1089;114574;-80
2021/06/30 07:06:47;;;;;;;12.20;8.85;;;;;;;23.02;57.93;99226.48;126621;1088;103221;-79
2021/06/30 07:09:36;;;;;;;11.50;8.80;;;;;;;23.24;57.77;99225.16;126614;1090;103021;-79
2021/06/30 07:12:24;;;;;;;24.97;10.80;;;;;;;23.50;56.99;99230.48;126575;1089;114242;-78
2021/06/30 07:15:17;;;;;;;13.27;9.07;;;;;;;23.98;56.56;99231.80;126838;1090;103409;-79
2021/06/30 07:18:15;;;;;;;14.17;8.57;;;;;;;24.64;55.38;99237.22;126624;1089;114411;-77
2021/06/30 07:21:09;;;;;;;9.83;8.80;;;;;;;25.39;54.38;99244.30;126624;1090;103014;-79
2021/06/30 07:23:57;;;;;;;10.37;8.80;;;;;;;26.20;52.38;99246.77;126590;1090;113049;-79
2021/06/30 07:26:50;;;;;;;15.95;8.10;;;;;;;27.27;50.53;99251.34;126686;1089;102847;-79
2021/06/30 07:29:43;;;;;;;15.10;7.40;;;;;;;28.25;47.79;99267.30;126578;1088;114512;-80
2021/06/30 07:32:36;;;;;;;12.70;6.63;;;;;;;29.18;46.47;99271.88;126724;1090;101759;-80
2021/06/30 07:35:29;;;;;;;9.17;7.60;;;;;;;29.92;44.73;99292.94;126499;1090;114677;-81
2021/06/30 07:38:22;;;;;;;12.50;7.87;;;;;;;30.26;43.50;99281.38;126687;1090;102909;-80
2021/06/30 07:41:15;;;;;;;13.50;6.63;;;;;;;31.03;43.89;99282.91;126618;1088;113448;-80
2021/06/30 07:44:04;;;;;;;6.87;5.47;;;;;;;32.00;41.91;99298.52;126719;1090;102885;-80
2021/06/30 07:46:52;;;;;;;9.00;5.33;;;;;;;32.42;39.98;99302.56;126610;1089;114151;-79
2021/06/30 07:49:41;;;;;;;10.03;6.17;;;;;;;32.73;38.72;99303.69;126702;1090;103438;-79
2021/06/30 07:52:30;;;;;;;7.23;6.30;;;;;;;32.71;38.39;99311.18;126544;1090;114671;-79
2021/06/30 07:55:19;;;;;;;7.70;5.97;;;;;;;32.37;37.92;99304.26;126593;1090;102850;-79
2021/06/30 07:58:07;;;;;;;7.10;5.80;;;;;;;32.16;38.19;99305.33;126539;1090;114564;-79
2021/06/30 08:00:55;;;;;;;6.17;5.53;;;;;;;31.65;38.27;99311.38;126637;1090;102940;-79
2021/06/30 08:03:44;;;;;;;8.43;6.03;;;;;;;31.44;39.96;99320.51;126835;1089;102955;-80
2021/06/30 08:06:33;;;;;;;8.53;5.47;;;;;;;31.55;39.03;99313.66;126676;1090;114066;-81
2021/06/30 08:09:22;;;;;;;9.63;6.03;;;;;;;31.00;39.27;99318.32;126715;1090;102902;-81
2021/06/30 08:12:18;;;;;;;7.27;5.33;;;;;;;30.53;40.41;99316.49;126582;1090;114182;-81
2021/06/30 08:15:08;;;;;;;5.77;4.80;;;;;;;30.39;41.02;99315.59;126703;1090;102982;-79
2021/06/30 08:17:56;;;;;;;5.90;4.47;;;;;;;30.76;41.44;99308.11;126714;1090;114194;-80
2021/06/30 08:20:50;;;;;;;5.30;4.50;;;;;;;31.82;39.86;99320.73;126609;1090;102850;-80
2021/06/30 08:23:39;;;;;;;9.87;4.80;;;;;;;32.22;38.90;99307.17;126672;1090;114150;-80
2021/06/30 08:26:30;;;;;;;5.30;3.90;;;;;;;33.33;38.64;99305.03;126722;1088;102956;-80
2021/06/30 08:29:20;;;;;;;6.27;3.83;;;;;;;34.44;37.18;99295.26;126652;1090;114116;-81
2021/06/30 08:32:08;;;;;;;5.47;3.73;;;;;;;35.45;36.06;99294.50;126703;1090;103247;-80
2021/06/30 08:34:56;;;;;;;4.03;3.60;;;;;;;36.21;33.86;99295.45;126616;1090;113102;-81
2021/06/30 08:37:46;;;;;;;4.67;3.57;;;;;;;36.81;33.58;99298.66;126842;1090;103022;-81
2021/06/30 08:40:37;;;;;;;7.63;3.57;;;;;;;37.23;31.66;99303.75;126757;1090;114409;-80
2021/06/30 08:43:26;;;;;;;6.77;3.50;;;;;;;37.82;30.23;99289.77;126644;1090;102865;-80
2021/06/30 08:46:21;;;;;;;5.33;3.40;;;;;;;37.86;30.10;99291.73;126557;1088;114422;-77
2021/06/30 08:49:10;;;;;;;7.10;3.40;;;;;;;38.06;30.42;99283.03;126589;1089;103275;-78
2021/06/30 08:51:59;;;;;;;5.77;3.20;;;;;;;38.45;30.23;99285.75;126734;1090;102930;-77
2021/06/30 08:54:48;;;;;;;4.17;2.90;;;;;;;38.45;28.51;99294.75;126527;1089;113816;-77
2021/06/30 08:57:38;;;;;;;7.97;3.30;;;;;;;38.41;28.98;99288.14;126637;1089;104024;-77
2021/06/30 09:00:30;;;;;;;6.17;3.20;;;;;;;38.26;27.18;99293.42;126516;1090;114436;-77
2021/06/30 09:03:20;;;;;;;4.07;3.00;;;;;;;37.94;27.88;99295.95;126651;1088;103061;-77
2021/06/30 09:06:12;;;;;;;6.97;2.90;;;;;;;37.30;28.56;99300.89;126651;1089;114117;-76
2021/06/30 09:09:04;;;;;;;6.73;4.07;;;;;;;36.20;28.12;99324.48;126682;1090;102673;-76
2021/06/30 09:11:58;;;;;;;5.10;3.53;;;;;;;35.05;28.75;99310.53;126731;1090;114189;-79
2021/06/30 09:14:47;;;;;;;4.50;2.90;;;;;;;34.39;30.42;99308.66;126675;1090;104880;-77
2021/06/30 09:17:36;;;;;;;3.53;2.90;;;;;;;34.07;30.96;99314.17;126501;1090;113290;-81
2021/06/30 09:20:24;;;;;;;6.30;3.57;;;;;;;33.94;31.56;99307.04;126709;1089;103636;-79
2021/06/30 09:23:12;;;;;;;5.83;3.23;;;;;;;34.23;32.09;99300.05;126720;1088;114718;-81
2021/06/30 09:26:02;;;;;;;5.95;3.55;;;;;;;34.07;31.21;99289.82;126935;1090;102747;-81
2021/06/30 09:28:50;;;;;;;4.13;3.47;;;;;;;32.96;31.94;99303.17;126711;1090;114604;-82
2021/06/30 09:31:42;;;;;;;4.70;3.43;;;;;;;32.60;33.17;99304.57;126782;1090;102660;-82
2021/06/30 09:34:30;;;;;;;5.03;3.17;;;;;;;32.68;34.01;99303.52;126671;1089;113154;-82
2021/06/30 09:37:28;;;;;;;7.13;3.60;;;;;;;33.02;33.66;99289.61;126882;1089;102742;-82
2021/06/30 09:40:17;;;;;;;6.15;3.60;;;;;;;33.39;33.97;99297.91;126816;1090;103012;-82
2021/06/30 09:43:31;;;;;;;8.67;3.70;;;;;;;33.68;33.38;99292.89;126715;1089;113812;-82
2021/06/30 09:46:22;;;;;;;4.93;3.53;;;;;;;33.94;33.60;99292.69;126874;1090;102939;-82
2021/06/30 09:49:15;;;;;;;4.90;3.47;;;;;;;34.24;33.43;99293.59;126644;1089;114077;-82
2021/06/30 09:52:12;;;;;;;5.43;3.87;;;;;;;34.33;32.27;99294.13;126876;1089;103800;-82
2021/06/30 09:55:00;;;;;;;6.70;4.33;;;;;;;34.23;32.35;99289.23;126771;1089;113156;-82
2021/06/30 09:57:48;;;;;;;8.00;4.03;;;;;;;34.42;33.04;99290.08;126860;1089;102936;-82
2021/06/30 10:00:36;;;;;;;5.60;3.37;;;;;;;34.98;31.81;99293.52;126589;1088;114303;-82
2021/06/30 10:03:39;;;;;;;8.33;3.77;;;;;;;35.25;31.93;99292.08;126774;1090;103066;-82
2021/06/30 10:06:35;;;;;;;6.40;3.80;;;;;;;35.05;30.74;99286.14;126588;1090;114472;-82
2021/06/30 10:09:31;;;;;;;5.63;3.43;;;;;;;35.03;31.37;99289.09;126892;1090;102931;-82
2021/06/30 10:12:25;;;;;;;7.90;4.53;;;;;;;34.46;30.66;99299.39;126677;1089;114285;-82
2021/06/30 10:15:13;;;;;;;10.97;4.43;;;;;;;33.50;31.40;99294.50;126744;1089;102730;-82
2021/06/30 10:18:03;;;;;;;5.83;4.20;;;;;;;32.65;32.72;99290.42;126820;1090;114335;-82
2021/06/30 10:20:59;;;;;;;5.30;4.10;;;;;;;32.02;33.62;99295.61;126754;1090;102904;-82
2021/06/30 10:23:48;;;;;;;7.00;4.30;;;;;;;31.77;34.94;99293.55;126602;1088;114652;-82
2021/06/30 10:26:36;;;;;;;5.03;4.50;;;;;;;31.33;35.29;99290.64;126881;1090;102952;-82
2021/06/30 10:29:31;;;;;;;7.63;5.23;;;;;;;30.88;35.99;99303.78;126554;1089;114266;-82
2021/06/30 10:32:19;;;;;;;6.90;5.20;;;;;;;30.36;37.04;99291.78;126729;1089;102852;-81
2021/06/30 10:35:16;;;;;;;9.20;5.80;;;;;;;29.83;38.40;99288.76;126607;1089;114578;-81
2021/06/30 10:38:04;;;;;;;7.13;5.75;;;;;;;29.44;39.24;99282.03;126718;1088;102858;-82
2021/06/30 10:40:52;;;;;;;10.00;6.23;;;;;;;29.12;39.80;99291.45;126619;1089;114381;-82
2021/06/30 10:44:12;;;;;;;8.10;6.00;;;;;;;28.85;40.06;99284.09;126837;1090;102996;-82
2021/06/30 10:47:35;;;;;;;7.87;6.13;;;;;;;28.69;40.69;99284.33;126742;1088;114386;-82
2021/06/30 10:50:27;;;;;;;9.77;5.83;;;;;;;28.57;41.00;99284.00;126890;1090;102862;-82
2021/06/30 10:53:26;;;;;;;8.50;5.90;;;;;;;28.39;41.52;99283.57;126663;1090;114312;-82
2021/06/30 10:56:14;;;;;;;6.87;5.77;;;;;;;28.27;42.07;99281.35;126866;1090;102906;-82
2021/06/30 10:59:03;;;;;;;8.53;5.43;;;;;;;28.28;42.56;99288.38;126760;1088;114573;-82
2021/06/30 11:02:20;;;;;;;8.23;6.57;;;;;;;28.33;43.15;99285.13;126753;1089;102844;-82
2021/06/30 11:05:17;;;;;;;10.13;6.47;;;;;;;28.31;42.60;99283.66;126597;1090;114356;-81
2021/06/30 11:08:45;;;;;;;7.60;6.17;;;;;;;28.28;42.89;99280.33;126795;1090;103486;-82
2021/06/30 11:11:33;;;;;;;9.30;6.10;;;;;;;28.46;43.48;99285.30;126746;1088;114363;-81
2021/06/30 11:14:38;;;;;;;7.83;6.70;;;;;;;28.69;43.01;99289.69;126695;1090;102852;-81
2021/06/30 11:17:34;;;;;;;7.27;6.37;;;;;;;28.89;42.50;99275.50;126601;1088;114545;-81
2021/06/30 11:20:52;;;;;;;8.30;6.20;;;;;;;29.13;42.44;99274.31;126687;1090;102994;-81
2021/06/30 11:23:42;;;;;;;6.95;6.20;;;;;;;29.14;42.48;99277.83;126608;1089;114319;-81
2021/06/30 11:26:39;;;;;;;7.87;6.60;;;;;;;28.99;42.71;99274.37;126909;1089;102271;-81
2021/06/30 11:29:48;;;;;;;7.73;6.53;;;;;;;28.69;42.83;99278.95;126726;1089;114435;-81
2021/06/30 11:32:39;;;;;;;9.17;7.47;;;;;;;28.51;43.53;99276.69;126891;1088;102944;-81
2021/06/30 11:35:34;;;;;;;9.40;7.83;;;;;;;28.27;43.86;99286.72;126766;1090;114302;-81
2021/06/30 11:38:27;;;;;;;9.30;7.70;;;;;;;28.01;44.17;99280.97;126832;1088;102945;-81
2021/06/30 11:41:22;;;;;;;9.03;7.43;;;;;;;27.81;44.46;99279.83;126723;1090;114240;-81
2021/06/30 11:44:10;;;;;;;8.40;7.47;;;;;;;27.53;45.24;99282.26;126788;1089;103101;-81
2021/06/30 11:47:03;;;;;;;11.40;7.80;;;;;;;27.35;45.67;99280.73;126821;1089;114459;-81
2021/06/30 11:50:01;;;;;;;8.50;7.57;;;;;;;27.32;46.58;99275.75;126788;1087;102844;-82
2021/06/30 11:52:49;;;;;;;9.07;7.70;;;;;;;27.37;46.59;99267.16;126774;1089;114270;-82
2021/06/30 11:55:42;;;;;;;8.43;7.40;;;;;;;27.42;46.81;99272.80;126715;1089;101606;-81
2021/06/30 11:58:40;;;;;;;9.77;7.70;;;;;;;27.49;46.44;99262.22;126822;1089;102886;-81
2021/06/30 12:01:31;;;;;;;9.80;8.03;;;;;;;27.53;46.51;99256.31;126627;1090;113069;-82
2021/06/30 12:04:28;;;;;;;9.63;7.77;;;;;;;27.54;46.77;99268.68;126732;1090;102874;-80
2021/06/30 12:07:15;;;;;;;9.40;8.37;;;;;;;27.48;47.34;99266.74;126632;1089;114454;-80
2021/06/30 12:10:03;;;;;;;10.17;9.20;;;;;;;27.55;47.26;99267.66;126729;1089;102863;-79
2021/06/30 12:12:52;;;;;;;10.70;8.97;;;;;;;27.81;47.74;99258.39;126616;1089;114607;-80
2021/06/30 12:15:43;;;;;;;9.90;8.10;;;;;;;27.99;47.42;99259.69;126725;1090;102844;-81
2021/06/30 12:18:31;;;;;;;10.47;8.50;;;;;;;28.19;47.45;99257.30;126573;1089;114274;-81
2021/06/30 12:21:19;;;;;;;9.50;8.40;;;;;;;28.45;47.26;99255.98;126804;1089;102860;-81
2021/06/30 12:24:20;;;;;;;10.27;9.27;;;;;;;28.65;46.68;99248.17;126644;1088;114095;-82
2021/06/30 12:27:10;;;;;;;10.00;8.80;;;;;;;28.93;46.49;99238.39;126808;1089;102985;-83
2021/06/30 12:30:01;;;;;;;10.10;9.10;;;;;;;29.15;46.21;99242.73;126708;1090;113275;-83
2021/06/30 12:32:56;;;;;;;11.53;9.87;;;;;;;29.24;45.50;99240.72;126753;1090;102847;-81
2021/06/30 12:35:50;;;;;;;12.50;9.20;;;;;;;29.32;45.46;99243.28;126638;1090;114624;-83
2021/06/30 12:38:38;;;;;;;10.77;9.67;;;;;;;29.52;45.88;99242.64;126831;1090;101854;-82
2021/06/30 12:41:26;;;;;;;10.73;9.60;;;;;;;29.67;45.67;99243.38;126614;1088;114450;-83
2021/06/30 12:44:15;;;;;;;10.43;9.43;;;;;;;29.88;45.28;99229.85;126751;1089;103084;-83
2021/06/30 12:47:12;;;;;;;11.87;9.63;;;;;;;30.13;44.32;99235.59;126733;1089;102970;-83
2021/06/30 12:50:03;;;;;;;;;;;;;;;30.23;43.50;99229.85;126741;1090;102906;-82
2021/06/30 12:53:12;;;;;;;11.33;10.17;;;;;;;30.04;43.48;99226.88;126863;1088;102884;-81
2021/06/30 12:56:08;;;;;;;11.60;10.43;;;;;;;29.93;43.56;99226.56;126574;1088;114519;-81
2021/06/30 12:58:56;;;;;;;11.40;10.33;;;;;;;29.99;43.51;99229.30;126812;1089;103107;-80
2021/06/30 13:01:45;;;;;;;11.00;9.93;;;;;;;29.94;43.70;99231.73;126769;1089;114646;-82
2021/06/30 13:04:33;;;;;;;11.50;10.50;;;;;;;29.95;43.39;99228.02;126779;1090;102942;-82
2021/06/30 13:07:39;;;;;;;14.03;10.40;;;;;;;29.93;43.76;99223.88;126637;1089;114637;-82